createdAt,value
2023-03-14T00:01:16.556Z,98182.22
2023-03-14T00:03:46.338Z,98196.56
2023-03-14T00:06:15.633Z,98180.13
2023-03-14T00:08:45.731Z,98181.72
2023-03-14T00:11:17.019Z,98187.81
2023-03-14T00:13:45.595Z,98188.59
2023-03-14T00:16:14.972Z,98195.25
2023-03-14T00:18:43.350Z,98195.00
2023-03-14T00:21:14.013Z,98170.03
2023-03-14T00:23:44.404Z,98178.78
2023-03-14T00:26:15.600Z,98165.81
2023-03-14T00:28:45.511Z,98170.31
2023-03-14T00:31:16.273Z,98166.06
2023-03-14T00:33:46.090Z,98173.53
2023-03-14T00:36:18.105Z,98164.53
2023-03-14T00:38:49.745Z,98169.59
2023-03-14T00:41:20.923Z,98160.03
2023-03-14T00:43:49.228Z,98164.53
2023-03-14T00:46:17.892Z,98166.94
2023-03-14T00:48:47.394Z,98170.06
2023-03-14T00:51:17.737Z,98153.09
2023-03-14T00:53:46.714Z,98166.63
2023-03-14T00:56:15.665Z,98163.72
2023-03-14T00:58:44.329Z,98148.84
2023-03-14T01:01:16.731Z,98152.59
2023-03-14T01:03:45.253Z,98152.59
2023-03-14T01:06:17.845Z,98157.09
2023-03-14T01:08:47.189Z,98170.06
2023-03-14T01:11:18.862Z,98165.06
2023-03-14T01:13:47.407Z,98156.56
2023-03-14T01:16:17.225Z,98167.72
2023-03-14T01:18:47.332Z,98159.22
2023-03-14T01:21:20.131Z,98172.22
2023-03-14T01:23:50.373Z,98164.53
2023-03-14T01:26:21.911Z,98159.22
2023-03-14T01:28:52.613Z,98147.56
2023-03-14T01:31:21.260Z,98149.94
2023-03-14T01:33:49.863Z,98144.63
2023-03-14T01:36:34.097Z,98128.22
2023-03-14T01:39:04.250Z,98133.50
2023-03-14T01:41:32.691Z,98127.16
2023-03-14T01:44:02.106Z,98126.13
2023-03-14T01:46:40.454Z,98119.78
2023-03-14T01:49:21.077Z,98109.19
2023-03-14T01:52:03.018Z,98111.03
2023-03-14T01:54:36.723Z,98110.75
2023-03-14T01:57:12.714Z,98111.25
2023-03-14T01:59:47.060Z,98110.47
2023-03-14T02:02:17.782Z,98092.69
2023-03-14T02:04:47.146Z,98078.38
2023-03-14T02:07:24.865Z,98063.50
2023-03-14T02:10:10.372Z,98069.09
2023-03-14T02:12:39.823Z,98069.88
2023-03-14T02:15:21.972Z,98073.31
2023-03-14T02:18:08.576Z,98071.75
2023-03-14T02:21:08.046Z,98064.66
2023-03-14T02:23:44.137Z,98055.91
2023-03-14T02:26:17.718Z,98055.09
2023-03-14T02:28:47.707Z,98055.09
2023-03-14T02:31:16.968Z,98045.56
2023-03-14T02:33:45.445Z,98049.00
2023-03-14T02:36:16.749Z,98050.09
2023-03-14T02:38:54.410Z,98051.94
2023-03-14T02:41:23.866Z,98058.03
2023-03-14T02:44:02.501Z,98049.31
2023-03-14T02:46:31.086Z,98034.72
2023-03-14T02:49:04.316Z,98034.72
2023-03-14T02:51:37.173Z,98051.94
2023-03-14T02:54:08.395Z,98039.19
2023-03-14T02:56:38.166Z,98056.69
2023-03-14T02:59:08.962Z,98045.56
2023-03-14T03:01:44.396Z,98047.22
2023-03-14T03:04:12.786Z,98050.94
2023-03-14T03:06:41.137Z,98037.94
2023-03-14T03:09:09.921Z,98024.97
2023-03-14T03:11:38.227Z,98030.28
2023-03-14T03:14:09.268Z,98021.53
2023-03-14T03:16:37.634Z,98030.28
2023-03-14T03:19:06.197Z,98017.81
2023-03-14T03:21:34.645Z,98019.69
2023-03-14T03:24:03.049Z,98011.72
2023-03-14T03:26:31.347Z,98007.19
2023-03-14T03:28:59.855Z,97986.28
2023-03-14T03:31:30.543Z,97985.75
2023-03-14T03:33:59.378Z,97984.97
2023-03-14T03:36:29.599Z,97974.66
2023-03-14T03:39:01.159Z,97965.13
2023-03-14T03:41:29.599Z,97965.66
2023-03-14T03:43:58.284Z,97953.50
2023-03-14T03:46:28.998Z,97946.63
2023-03-14T03:48:58.064Z,97948.75
2023-03-14T03:51:28.682Z,97939.53
2023-03-14T03:53:58.949Z,97951.19
2023-03-14T03:56:32.554Z,97951.47
2023-03-14T03:59:01.925Z,97956.25
2023-03-14T04:01:31.601Z,97946.75
2023-03-14T04:04:01.813Z,97959.72
2023-03-14T04:06:31.173Z,97948.06
2023-03-14T04:09:01.849Z,97954.13
2023-03-14T04:11:51.830Z,97953.63
2023-03-14T04:14:23.417Z,97944.63
2023-03-14T04:17:03.039Z,97956.25
2023-03-14T04:19:32.098Z,97956.25
2023-03-14T04:22:00.650Z,97960.00
2023-03-14T04:24:34.851Z,97951.25
2023-03-14T04:27:03.246Z,97944.09
2023-03-14T04:29:32.515Z,97952.56
2023-03-14T04:32:03.017Z,97931.63
2023-03-14T04:34:31.499Z,97939.78
2023-03-14T04:37:00.121Z,97926.31
2023-03-14T04:39:37.356Z,97948.53
2023-03-14T04:42:19.332Z,97932.63
2023-03-14T04:44:50.457Z,97941.38
2023-03-14T04:47:22.320Z,97928.69
2023-03-14T04:49:52.418Z,97924.66
2023-03-14T04:52:21.372Z,97930.06
2023-03-14T04:54:49.828Z,97919.72
2023-03-14T04:57:20.018Z,97927.44
2023-03-14T04:59:49.643Z,97918.16
2023-03-14T05:02:45.952Z,97917.06
2023-03-14T05:05:35.167Z,97906.25
2023-03-14T05:08:23.227Z,97911.53
2023-03-14T05:11:06.338Z,97905.97
2023-03-14T05:13:53.924Z,97903.66
2023-03-14T05:16:36.253Z,97912.34
2023-03-14T05:19:24.842Z,97913.19
2023-03-14T05:22:12.305Z,97915.84
2023-03-14T05:25:03.889Z,97899.44
2023-03-14T05:28:12.981Z,97912.13
2023-03-14T05:30:57.426Z,97911.53
2023-03-14T05:33:44.443Z,97905.44
2023-03-14T05:36:38.499Z,97913.97
2023-03-14T05:39:33.038Z,97912.41
2023-03-14T05:42:12.169Z,97903.44
2023-03-14T05:45:10.479Z,97905.56
2023-03-14T05:48:08.437Z,97901.31
2023-03-14T05:50:57.685Z,97904.28
2023-03-14T05:53:40.275Z,97891.81
2023-03-14T05:56:26.809Z,97896.88
2023-03-14T05:59:10.987Z,97889.78
2023-03-14T06:02:08.762Z,97900.97
2023-03-14T06:04:48.145Z,97895.34
2023-03-14T06:07:17.433Z,97894.56
2023-03-14T06:09:47.895Z,97884.28
2023-03-14T06:12:20.230Z,97881.88
2023-03-14T06:14:48.990Z,97887.69
2023-03-14T06:17:19.940Z,97885.84
2023-03-14T06:19:57.315Z,97887.63
2023-03-14T06:22:27.024Z,97879.97
2023-03-14T06:24:57.836Z,97879.19
2023-03-14T06:27:27.969Z,97888.16
2023-03-14T06:29:58.478Z,97882.09
2023-03-14T06:32:28.209Z,97876.47
2023-03-14T06:35:02.059Z,97872.50
2023-03-14T06:37:32.504Z,97874.59
2023-03-14T06:40:02.371Z,97872.72
2023-03-14T06:43:06.366Z,97884.72
2023-03-14T06:45:36.167Z,97893.16
2023-03-14T06:48:05.985Z,97886.00
2023-03-14T06:50:53.956Z,97887.06
2023-03-14T06:53:24.338Z,97874.38
2023-03-14T06:55:54.865Z,97868.59
2023-03-14T06:58:23.973Z,97874.13
2023-03-14T07:00:52.400Z,97865.09
2023-03-14T07:03:25.805Z,97880.97
2023-03-14T07:05:57.188Z,97869.38
2023-03-14T07:08:25.717Z,97885.50
2023-03-14T07:10:58.236Z,97871.50
2023-03-14T07:13:27.158Z,97864.28
2023-03-14T07:16:01.738Z,97865.88
2023-03-14T07:18:30.646Z,97865.31
2023-03-14T07:20:59.031Z,97866.38
2023-03-14T07:23:27.531Z,97865.00
2023-03-14T07:25:57.734Z,97876.19
2023-03-14T07:28:28.732Z,97875.38
2023-03-14T07:31:06.433Z,97872.16
2023-03-14T07:33:35.223Z,97858.91
2023-03-14T07:36:05.072Z,97858.44
2023-03-14T07:38:33.963Z,97867.94
2023-03-14T07:41:22.255Z,97874.91
2023-03-14T07:44:09.318Z,97870.69
2023-03-14T07:46:37.820Z,97877.81
2023-03-14T07:49:06.214Z,97885.50
2023-03-14T07:51:34.605Z,97881.75
2023-03-14T07:54:03.145Z,97888.94
2023-03-14T07:56:32.855Z,97885.50
2023-03-14T07:59:01.291Z,97883.34
2023-03-14T08:01:29.748Z,97888.94
2023-03-14T08:03:58.181Z,97903.53
2023-03-14T08:06:26.658Z,97895.53
2023-03-14T08:08:55.022Z,97894.47
2023-03-14T08:11:23.483Z,97891.81
2023-03-14T08:13:53.342Z,97900.28
2023-03-14T08:16:22.478Z,97902.41
2023-03-14T08:18:50.913Z,97911.16
2023-03-14T08:21:19.399Z,97905.56
2023-03-14T08:23:47.767Z,97903.19
2023-03-14T08:26:16.273Z,97907.41
2023-03-14T08:28:44.626Z,97905.84
2023-03-14T08:31:15.648Z,97913.78
2023-03-14T08:33:44.118Z,97908.50
2023-03-14T08:36:13.079Z,97911.44
2023-03-14T08:38:43.475Z,97919.88
2023-03-14T08:41:12.686Z,97914.34
2023-03-14T08:43:41.058Z,97910.59
2023-03-14T08:46:09.522Z,97912.97
2023-03-14T08:48:39.287Z,97914.84
2023-03-14T08:51:10.152Z,97903.66
2023-03-14T08:53:38.648Z,97904.66
2023-03-14T08:56:10.858Z,97900.66
2023-03-14T08:58:39.852Z,97913.84
2023-03-14T09:01:10.662Z,97891.00
2023-03-14T09:03:40.773Z,97896.50
2023-03-14T09:06:11.823Z,97893.81
2023-03-14T09:08:40.182Z,97897.47
2023-03-14T09:11:10.698Z,97882.56
2023-03-14T09:13:39.457Z,97886.00
2023-03-14T09:16:09.657Z,97886.41
2023-03-14T09:18:39.475Z,97890.06
2023-03-14T09:21:08.801Z,97885.28
2023-03-14T09:23:37.178Z,97882.31
2023-03-14T09:26:05.726Z,97887.28
2023-03-14T09:28:34.140Z,97888.84
2023-03-14T09:31:09.079Z,97896.53
2023-03-14T09:33:39.143Z,97897.00
2023-03-14T09:36:09.458Z,97904.50
2023-03-14T09:38:38.008Z,97904.13
2023-03-14T09:41:18.355Z,97905.41
2023-03-14T09:43:51.941Z,97901.69
2023-03-14T09:46:20.949Z,97920.47
2023-03-14T09:48:50.704Z,97914.88
2023-03-14T09:51:22.721Z,97911.13
2023-03-14T09:53:52.726Z,97913.53
2023-03-14T09:56:25.089Z,97921.38
2023-03-14T09:58:57.944Z,97917.66
2023-03-14T10:01:32.392Z,97907.84
2023-03-14T10:04:09.073Z,97916.59
2023-03-14T10:06:37.470Z,97909.13
2023-03-14T10:09:06.750Z,97914.41
2023-03-14T10:11:35.182Z,97914.34
2023-03-14T10:14:09.646Z,97912.75
2023-03-14T10:16:42.739Z,97930.56
2023-03-14T10:19:16.349Z,97925.25
2023-03-14T10:21:46.380Z,97924.47
2023-03-14T10:24:23.683Z,97928.69
2023-03-14T10:26:55.814Z,97920.25
2023-03-14T10:29:24.325Z,97930.56
2023-03-14T10:31:56.318Z,97922.59
2023-03-14T10:34:29.217Z,97919.25
2023-03-14T10:37:00.603Z,97925.03
2023-03-14T10:39:44.857Z,97929.88
2023-03-14T10:42:22.327Z,97923.25
2023-03-14T10:44:57.437Z,97913.22
2023-03-14T10:47:29.322Z,97916.94
2023-03-14T10:49:59.537Z,97928.94
2023-03-14T10:52:31.572Z,97923.91
2023-03-14T10:55:13.935Z,97918.09
2023-03-14T10:57:42.838Z,97919.44
2023-03-14T11:00:19.020Z,97923.19
2023-03-14T11:03:11.286Z,97921.09
2023-03-14T11:05:46.265Z,97920.91
2023-03-14T11:08:23.717Z,97926.72
2023-03-14T11:10:57.235Z,97924.63
2023-03-14T11:13:29.060Z,97937.13
2023-03-14T11:16:05.020Z,97939.25
2023-03-14T11:19:23.486Z,97946.28
2023-03-14T11:21:59.601Z,97943.13
2023-03-14T11:25:00.717Z,97941.56
2023-03-14T11:27:45.663Z,97949.59
2023-03-14T11:30:22.125Z,97965.00
2023-03-14T11:32:58.776Z,97961.81
2023-03-14T11:35:33.192Z,97955.25
2023-03-14T11:38:18.108Z,97953.16
2023-03-14T11:40:49.158Z,97968.84
2023-03-14T11:43:23.096Z,97966.75
2023-03-14T11:45:53.470Z,97967.84
2023-03-14T11:48:33.359Z,97969.47
2023-03-14T11:51:04.582Z,97979.00
2023-03-14T11:53:50.717Z,97984.88
2023-03-14T11:56:27.837Z,97991.75
2023-03-14T11:59:02.888Z,97999.22
2023-03-14T12:01:47.372Z,98010.59
2023-03-14T12:04:25.519Z,98037.41
2023-03-14T12:06:53.973Z,98047.19
2023-03-14T12:09:24.646Z,98047.78
2023-03-14T12:11:57.749Z,98057.88
2023-03-14T12:14:28.810Z,98077.50
2023-03-14T12:16:59.818Z,98090.75
2023-03-14T12:19:40.384Z,98115.97
2023-03-14T12:22:28.841Z,98130.84
2023-03-14T12:25:06.856Z,98139.88
2023-03-14T12:28:02.543Z,98139.66
2023-03-14T12:30:35.330Z,98141.78
2023-03-14T12:33:29.082Z,98159.31
2023-03-14T12:36:33.362Z,98164.38
2023-03-14T12:39:15.779Z,98172.06
2023-03-14T12:41:50.601Z,98181.88
2023-03-14T12:44:43.934Z,98204.69
2023-03-14T12:47:54.382Z,98233.59
2023-03-14T12:50:38.316Z,98229.94
2023-03-14T12:53:51.141Z,98237.38
2023-03-14T12:57:01.764Z,98241.13
2023-03-14T12:59:35.928Z,98244.31
2023-03-14T13:02:24.379Z,98263.13
2023-03-14T13:05:01.943Z,98262.34
2023-03-14T13:07:37.884Z,98283.28
2023-03-14T13:10:21.193Z,98292.28
2023-03-14T13:12:58.298Z,98298.13
2023-03-14T13:15:32.359Z,98293.88
2023-03-14T13:18:05.925Z,98302.63
2023-03-14T13:20:37.974Z,98299.72
2023-03-14T13:23:06.524Z,98310.31
2023-03-14T13:25:37.521Z,98312.97
2023-03-14T13:28:08.263Z,98328.84
2023-03-14T13:30:43.093Z,98332.56
2023-03-14T13:33:17.081Z,98344.75
2023-03-14T13:35:49.201Z,98377.06
2023-03-14T13:38:23.852Z,98374.72
2023-03-14T13:40:54.088Z,98403.06
2023-03-14T13:43:32.030Z,98405.19
2023-03-14T13:46:06.967Z,98408.09
2023-03-14T13:48:44.002Z,98422.66
2023-03-14T13:51:15.646Z,98427.94
2023-03-14T13:53:47.965Z,98432.22
2023-03-14T13:56:16.466Z,98443.59
2023-03-14T13:58:46.434Z,98442.81
2023-03-14T14:01:18.986Z,98459.22
2023-03-14T14:03:52.593Z,98455.50
2023-03-14T14:06:33.731Z,98472.19
2023-03-14T14:09:05.717Z,98506.84
2023-03-14T14:11:50.977Z,98537.84
2023-03-14T14:14:29.539Z,98541.53
2023-03-14T14:16:59.516Z,98537.84
2023-03-14T14:19:31.938Z,98546.56
2023-03-14T14:22:00.797Z,98557.94
2023-03-14T14:24:33.414Z,98550.25
2023-03-14T14:27:04.360Z,98566.41
2023-03-14T14:29:35.610Z,98568.25
2023-03-14T14:32:10.678Z,98567.44
2023-03-14T14:34:50.324Z,98581.75
2023-03-14T14:37:27.650Z,98604.25
2023-03-14T14:39:59.774Z,98591.03
2023-03-14T14:42:31.960Z,98610.34
2023-03-14T14:45:04.900Z,98609.28
2023-03-14T14:47:33.538Z,98616.19
2023-03-14T14:50:06.858Z,98624.34
2023-03-14T14:52:42.595Z,98645.00
2023-03-14T14:55:18.399Z,98649.75
2023-03-14T14:57:53.433Z,98637.28
2023-03-14T15:00:25.557Z,98637.53
2023-03-14T15:02:56.657Z,98643.88
2023-03-14T15:05:27.528Z,98652.38
2023-03-14T15:07:56.350Z,98657.38
2023-03-14T15:10:27.301Z,98651.25
2023-03-14T15:12:55.737Z,98657.09
2023-03-14T15:15:25.409Z,98661.59
2023-03-14T15:17:53.734Z,98659.47
2023-03-14T15:20:24.699Z,98679.84
2023-03-14T15:22:53.373Z,98672.44
2023-03-14T15:25:47.296Z,98682.78
2023-03-14T15:28:20.836Z,98679.34
2023-03-14T15:30:57.587Z,98690.16
2023-03-14T15:33:27.812Z,98675.09
2023-03-14T15:35:57.965Z,98681.19
2023-03-14T15:38:26.376Z,98678.28
2023-03-14T15:40:55.289Z,98683.28
2023-03-14T15:43:23.738Z,98693.88
2023-03-14T15:45:53.502Z,98698.38
2023-03-14T15:48:23.604Z,98698.94
2023-03-14T15:50:52.098Z,98707.66
2023-03-14T15:53:20.638Z,98719.03
2023-03-14T15:55:49.026Z,98728.03
2023-03-14T15:58:21.971Z,98708.19
2023-03-14T16:00:52.652Z,98723.25
2023-03-14T16:03:21.220Z,98710.53
2023-03-14T16:05:49.727Z,98709.22
2023-03-14T16:08:18.592Z,98734.34
2023-03-14T16:10:48.192Z,98731.72
2023-03-14T16:13:17.135Z,98735.41
2023-03-14T16:15:56.729Z,98727.47
2023-03-14T16:18:25.242Z,98735.94
2023-03-14T16:21:01.759Z,98750.75
2023-03-14T16:23:32.149Z,98749.72
2023-03-14T16:26:01.116Z,98750.28
2023-03-14T16:28:29.561Z,98746.56
2023-03-14T16:31:03.697Z,98752.38
2023-03-14T16:33:32.310Z,98759.84
2023-03-14T16:36:06.172Z,98761.97
2023-03-14T16:38:35.320Z,98762.28
2023-03-14T16:41:06.920Z,98771.03
2023-03-14T16:43:37.246Z,98767.88
2023-03-14T16:46:09.940Z,98781.91
2023-03-14T16:48:38.555Z,98782.44
2023-03-14T16:51:07.481Z,98786.97
2023-03-14T16:53:35.832Z,98788.81
2023-03-14T16:56:04.363Z,98796.50
2023-03-14T16:58:32.717Z,98807.34
2023-03-14T17:01:10.492Z,98805.22
2023-03-14T17:03:42.513Z,98807.59
2023-03-14T17:06:12.905Z,98808.63
2023-03-14T17:08:41.360Z,98807.03
2023-03-14T17:11:10.165Z,98810.19
2023-03-14T17:13:39.478Z,98805.97
2023-03-14T17:16:08.943Z,98813.34
2023-03-14T17:18:39.845Z,98825.78
2023-03-14T17:21:08.506Z,98822.09
2023-03-14T17:23:37.544Z,98826.59
2023-03-14T17:26:06.313Z,98833.50
2023-03-14T17:28:34.800Z,98853.06
2023-03-14T17:31:06.339Z,98862.06
2023-03-14T17:33:35.324Z,98862.34
2023-03-14T17:36:06.466Z,98864.97
2023-03-14T17:38:36.678Z,98871.06
2023-03-14T17:41:05.646Z,98874.44
2023-03-14T17:43:34.020Z,98880.25
2023-03-14T17:46:06.306Z,98895.84
2023-03-14T17:48:34.854Z,98904.00
2023-03-14T17:51:04.737Z,98903.72
2023-03-14T17:53:33.437Z,98910.56
2023-03-14T17:56:01.829Z,98921.34
2023-03-14T17:58:32.518Z,98945.97
2023-03-14T18:01:11.248Z,98949.13
2023-03-14T18:03:40.169Z,98950.88
2023-03-14T18:06:11.921Z,98975.19
2023-03-14T18:08:42.435Z,98974.28
2023-03-14T18:11:11.296Z,98988.00
2023-03-14T18:13:39.936Z,98980.75
2023-03-14T18:16:14.265Z,98996.91
2023-03-14T18:18:43.115Z,99001.19
2023-03-14T18:21:13.282Z,99021.03
2023-03-14T18:23:41.734Z,99025.28
2023-03-14T18:26:10.650Z,99031.13
2023-03-14T18:28:39.014Z,99032.72
2023-03-14T18:31:09.902Z,99039.63
2023-03-14T18:33:40.330Z,99044.66
2023-03-14T18:36:10.103Z,99052.09
2023-03-14T18:38:43.276Z,99061.38
2023-03-14T18:41:14.113Z,99070.59
2023-03-14T18:43:42.907Z,99076.16
2023-03-14T18:46:11.501Z,99078.22
2023-03-14T18:48:42.370Z,99078.97
2023-03-14T18:51:12.688Z,99085.56
2023-03-14T18:53:43.158Z,99094.78
2023-03-14T18:56:14.092Z,99102.69
2023-03-14T18:58:43.523Z,99097.09
2023-03-14T19:01:12.897Z,99109.53
2023-03-14T19:03:42.218Z,99108.41
2023-03-14T19:06:12.103Z,99105.22
2023-03-14T19:08:43.211Z,99112.59
2023-03-14T19:11:13.921Z,99111.00
2023-03-14T19:13:42.965Z,99118.38
2023-03-14T19:16:13.887Z,99129.44
2023-03-14T19:18:43.004Z,99132.03
2023-03-14T19:21:13.303Z,99129.53
2023-03-14T19:23:46.548Z,99152.53
2023-03-14T19:26:16.276Z,99158.63
2023-03-14T19:28:44.658Z,99160.63
2023-03-14T19:31:13.081Z,99164.69
2023-03-14T19:33:42.533Z,99172.25
2023-03-14T19:36:22.499Z,99185.94
2023-03-14T19:38:53.302Z,99194.34
2023-03-14T19:41:24.085Z,99196.09
2023-03-14T19:43:53.278Z,99206.91
2023-03-14T19:46:22.765Z,99204.72
2023-03-14T19:48:54.417Z,99211.28
2023-03-14T19:51:24.161Z,99217.34
2023-03-14T19:53:54.250Z,99219.41
2023-03-14T19:56:24.219Z,99226.88
2023-03-14T19:58:53.424Z,99231.63
2023-03-14T20:01:24.490Z,99243.19
2023-03-14T20:03:53.412Z,99243.44
2023-03-14T20:06:22.460Z,99254.81
2023-03-14T20:08:50.994Z,99265.84
2023-03-14T20:11:20.778Z,99272.75
2023-03-14T20:13:49.181Z,99284.91
2023-03-14T20:16:17.527Z,99279.53
2023-03-14T20:18:46.376Z,99298.34
2023-03-14T20:21:15.493Z,99305.25
2023-03-14T20:23:44.355Z,99308.09
2023-03-14T20:26:12.861Z,99313.63
2023-03-14T20:28:44.860Z,99322.81
2023-03-14T20:31:15.190Z,99319.53
2023-03-14T20:33:43.681Z,99317.94
2023-03-14T20:36:12.329Z,99340.56
2023-03-14T20:38:40.734Z,99342.75
2023-03-14T20:41:10.667Z,99359.28
2023-03-14T20:43:39.347Z,99359.66
2023-03-14T20:46:09.104Z,99365.75
2023-03-14T20:48:39.132Z,99379.53
2023-03-14T20:51:07.719Z,99377.47
2023-03-14T20:53:36.042Z,99382.53
2023-03-14T20:56:05.193Z,99389.75
2023-03-14T20:58:33.793Z,99399.97
2023-03-14T21:01:03.666Z,99403.25
2023-03-14T21:03:33.337Z,99404.19
2023-03-14T21:06:01.719Z,99410.72
2023-03-14T21:08:30.034Z,99417.81
2023-03-14T21:10:58.558Z,99414.13
2023-03-14T21:13:26.986Z,99430.56
2023-03-14T21:15:55.515Z,99423.19
2023-03-14T21:18:24.365Z,99411.84
2023-03-14T21:20:55.555Z,99416.69
2023-03-14T21:23:26.525Z,99422.75
2023-03-14T21:25:55.807Z,99421.38
2023-03-14T21:28:24.200Z,99443.88
2023-03-14T21:30:52.874Z,99453.59
2023-03-14T21:33:21.399Z,99467.59
2023-03-14T21:35:55.312Z,99467.03
2023-03-14T21:38:23.668Z,99471.47
2023-03-14T21:40:57.278Z,99479.63
2023-03-14T21:43:25.876Z,99478.25
2023-03-14T21:45:54.991Z,99472.16
2023-03-14T21:48:23.918Z,99476.09
2023-03-14T21:50:54.140Z,99480.75
2023-03-14T21:53:22.448Z,99480.16
2023-03-14T21:55:53.598Z,99490.84
2023-03-14T21:58:21.919Z,99485.41
2023-03-14T22:00:50.288Z,99493.78
2023-03-14T22:03:20.406Z,99485.84
2023-03-14T22:05:49.162Z,99494.22
2023-03-14T22:08:22.629Z,99492.03
2023-03-14T22:10:53.185Z,99502.13
2023-03-14T22:13:23.278Z,99500.53
2023-03-14T22:15:52.241Z,99507.63
2023-03-14T22:18:21.028Z,99502.34
2023-03-14T22:20:49.573Z,99510.66
2023-03-14T22:23:19.310Z,99514.13
2023-03-14T22:25:49.664Z,99518.81
2023-03-14T22:28:18.808Z,99517.19
2023-03-14T22:30:48.642Z,99526.13
2023-03-14T22:33:17.491Z,99527.97
2023-03-14T22:35:49.788Z,99530.84
2023-03-14T22:38:19.925Z,99530.03
2023-03-14T22:40:48.695Z,99538.38
2023-03-14T22:43:17.088Z,99543.66
2023-03-14T22:45:46.055Z,99545.50
2023-03-14T22:48:15.229Z,99551.78
2023-03-14T22:50:43.702Z,99559.91
2023-03-14T22:53:12.007Z,99554.63
2023-03-14T22:55:41.804Z,99557.47
2023-03-14T22:58:10.254Z,99570.66
2023-03-14T23:00:39.539Z,99569.06
2023-03-14T23:03:07.956Z,99571.31
2023-03-14T23:05:36.386Z,99583.47
2023-03-14T23:08:04.685Z,99587.38
2023-03-14T23:10:33.955Z,99590.56
2023-03-14T23:13:05.647Z,99592.66
2023-03-14T23:15:35.129Z,99596.28
2023-03-14T23:18:03.545Z,99588.25
2023-03-14T23:20:31.953Z,99596.16
2023-03-14T23:23:00.255Z,99617.84
2023-03-14T23:25:30.088Z,99613.78
2023-03-14T23:28:00.014Z,99625.38
2023-03-14T23:30:29.952Z,99619.13
2023-03-14T23:32:58.321Z,99631.28
2023-03-14T23:35:26.680Z,99634.50
2023-03-14T23:37:54.987Z,99638.19
2023-03-14T23:40:23.414Z,99627.47
2023-03-14T23:42:51.766Z,99633.34
2023-03-14T23:45:20.092Z,99642.25
2023-03-14T23:47:49.749Z,99647.75
2023-03-14T23:50:18.459Z,99654.84
2023-03-14T23:52:46.777Z,99651.03
2023-03-14T23:55:15.098Z,99666.03
2023-03-14T23:57:43.438Z,99672.31
